Aérodrome :
LOGIN :

S'inscrire | Disclaimer

   EN    FR    IT 

 










Légende :    VFR   VFR Marginal   IFR   IFR Intensif   IFR Très Intensif
Visi : 
Plafond : 
>= 8 km
>= 3000ft
5 à 8 km
1000 à 3000 ft
1500m à 5 km
500 à 1000 ft
800 à 1500m
200 à 500 ft
< 800m
< 200 ft
Symboles :   Orages  Brouillard  Fortes neiges  Fortes précipitations  Vent > 20 kt
SIGMETs :   Divers  Orages  Givrage  Turbulence  Onde Orograph.  Cendres Volcan.






- Altitude de l'aérodrome : 336 ft
- Code IATA : GCI


EGJB - Guernsey

DERNIER METAR :
  • 140050Z 28012KT 250V310 9999 -SHRA FEW020CB SCT025 07/03 Q0989

METARs EXPIRÉS :
  • 132350Z 27012KT 9999 -SHRA FEW020CB 06/02 Q0989
  • 132250Z 26014KT 9999 VCSH FEW020CB 07/02 Q0989

TAF TAF EGJB
Valide du 14 à 00h jusqu'au 14 à 09h UTC


132258Z 1400/1409 25012KT 9999 FEW015CB SCT025
TEMPO 1400/1406 28022G35KT
TEMPO 1400/1409 6000 SHRA BKN015CB
PROB30
TEMPO 1400/1409 3000 +TSRAGS BKN010CB
ATIS : +44 1481 238 957



MET'MAP, la Météo Aéronautique d'un coup d'oeil ! - Copyright ORBIFLY Décembre 2007 - Disclaimer

ORBIFLY MET'MAP TEAM :

Programmation & Développement : Alexandra Zaïnal
Conception & Développement : Baudouin d'Aumeries
Co-Programmation & Développement : Marc-Olivier Méhu
Soutien technique & logistique : Manuel Goepfert

Contact : metmap@orbifly.com




SOURCES & CREDITS :

   NOAA